createdAt,value
2018-08-12T00:00:38.785Z,13.70
2018-08-12T00:03:08.322Z,13.70
2018-08-12T00:05:36.772Z,13.60
2018-08-12T00:08:05.682Z,13.60
2018-08-12T00:10:34.171Z,13.60
2018-08-12T00:13:02.724Z,13.60
2018-08-12T00:15:31.220Z,13.60
2018-08-12T00:17:59.733Z,13.60
2018-08-12T00:20:28.299Z,13.60
2018-08-12T00:22:56.864Z,13.60
2018-08-12T00:25:25.420Z,13.60
2018-08-12T00:27:53.925Z,13.60
2018-08-12T00:30:22.449Z,13.50
2018-08-12T00:32:50.914Z,13.50
2018-08-12T00:35:19.862Z,13.50
2018-08-12T00:37:48.428Z,13.50
2018-08-12T00:40:17.656Z,13.50
2018-08-12T00:42:46.800Z,13.40
2018-08-12T00:45:17.356Z,13.40
2018-08-12T00:47:46.160Z,13.40
2018-08-12T00:50:15.452Z,13.30
2018-08-12T00:52:44.539Z,13.20
2018-08-12T00:55:15.463Z,13.20
2018-08-12T00:57:45.468Z,13.10
2018-08-12T01:00:18.215Z,13.00
2018-08-12T01:02:46.760Z,13.00
2018-08-12T01:05:16.460Z,13.00
2018-08-12T01:07:45.566Z,13.00
2018-08-12T01:10:14.452Z,12.90
2018-08-12T01:12:42.992Z,12.90
2018-08-12T01:15:13.987Z,12.90
2018-08-12T01:17:43.228Z,12.80
2018-08-12T01:20:16.593Z,12.90
2018-08-12T01:22:45.108Z,13.00
2018-08-12T01:25:13.661Z,13.00
2018-08-12T01:27:42.188Z,13.10
2018-08-12T01:30:13.469Z,13.00
2018-08-12T01:32:42.647Z,13.00
2018-08-12T01:35:12.076Z,13.00
2018-08-12T01:37:41.352Z,13.00
2018-08-12T01:40:12.097Z,13.00
2018-08-12T01:42:41.183Z,13.00
2018-08-12T01:45:11.501Z,12.90
2018-08-12T01:47:39.956Z,13.00
2018-08-12T01:50:09.256Z,13.00
2018-08-12T01:52:37.753Z,13.00
2018-08-12T01:55:06.536Z,13.00
2018-08-12T01:57:35.252Z,13.00
2018-08-12T02:00:04.824Z,13.00
2018-08-12T02:02:34.145Z,13.10
2018-08-12T02:05:02.644Z,13.10
2018-08-12T02:07:31.120Z,13.20
2018-08-12T02:09:59.628Z,13.20
2018-08-12T02:12:28.093Z,13.20
2018-08-12T02:14:56.556Z,13.20
2018-08-12T02:17:25.048Z,13.20
2018-08-12T02:19:54.061Z,13.10
2018-08-12T02:22:22.564Z,13.10
2018-08-12T02:24:50.996Z,13.10
2018-08-12T02:27:19.500Z,13.00
2018-08-12T02:29:47.952Z,13.10
2018-08-12T02:32:16.460Z,13.00
2018-08-12T02:34:44.919Z,13.00
2018-08-12T02:37:13.477Z,12.90
2018-08-12T02:39:41.947Z,12.90
2018-08-12T02:42:10.457Z,12.80
2018-08-12T02:44:38.920Z,12.80
2018-08-12T02:47:07.372Z,12.80
2018-08-12T02:49:35.850Z,12.80
2018-08-12T02:52:04.388Z,12.70
2018-08-12T02:54:32.887Z,12.80
2018-08-12T02:57:01.425Z,12.80
2018-08-12T02:59:29.900Z,12.80
2018-08-12T03:01:58.357Z,12.90
2018-08-12T03:04:26.857Z,12.90
2018-08-12T03:06:55.932Z,13.00
2018-08-12T03:09:24.384Z,12.90
2018-08-12T03:11:52.845Z,12.90
2018-08-12T03:14:21.326Z,13.00
2018-08-12T03:16:49.807Z,13.00
2018-08-12T03:19:18.260Z,12.90
2018-08-12T03:21:47.056Z,12.90
2018-08-12T03:24:15.521Z,12.90
2018-08-12T03:26:44.603Z,12.90
2018-08-12T03:29:13.052Z,12.80
2018-08-12T03:31:41.536Z,12.80
2018-08-12T03:34:09.984Z,12.90
2018-08-12T03:36:39.150Z,12.90
2018-08-12T03:39:09.452Z,12.90
2018-08-12T03:41:37.984Z,12.80
2018-08-12T03:44:06.729Z,12.80
2018-08-12T03:46:35.396Z,12.90
2018-08-12T03:49:04.433Z,12.70
2018-08-12T03:51:32.947Z,12.70
2018-08-12T03:54:01.435Z,12.80
2018-08-12T03:56:29.944Z,12.80
2018-08-12T03:58:58.717Z,12.70
2018-08-12T04:01:27.166Z,12.60
2018-08-12T04:03:55.625Z,12.80
2018-08-12T04:06:24.161Z,12.80
2018-08-12T04:08:52.621Z,12.90
2018-08-12T04:11:21.084Z,12.80
2018-08-12T04:13:49.540Z,12.80
2018-08-12T04:16:17.989Z,12.90
2018-08-12T04:18:46.525Z,12.90
2018-08-12T04:21:15.016Z,12.80
2018-08-12T04:23:43.844Z,12.90
2018-08-12T04:26:12.300Z,12.90
2018-08-12T04:28:40.787Z,13.00
2018-08-12T04:31:09.300Z,13.00
2018-08-12T04:33:38.239Z,13.00
2018-08-12T04:36:06.800Z,13.10
2018-08-12T04:38:35.280Z,13.20
2018-08-12T04:41:03.828Z,13.20
2018-08-12T04:43:32.876Z,13.30
2018-08-12T04:46:01.491Z,13.30
2018-08-12T04:48:29.925Z,13.30
2018-08-12T04:50:58.411Z,13.30
2018-08-12T04:53:27.437Z,13.40
2018-08-12T04:55:56.608Z,13.60
2018-08-12T04:58:25.060Z,13.60
2018-08-12T05:00:53.564Z,13.80
2018-08-12T05:03:22.063Z,14.00
2018-08-12T05:05:50.584Z,14.10
2018-08-12T05:08:19.070Z,14.40
2018-08-12T05:10:47.609Z,14.70
2018-08-12T05:13:16.523Z,14.60
2018-08-12T05:15:45.431Z,14.50
2018-08-12T05:18:14.322Z,14.50
2018-08-12T05:20:42.804Z,14.60
2018-08-12T05:23:11.284Z,15.00
2018-08-12T05:25:40.145Z,14.90
2018-08-12T05:28:08.632Z,14.70
2018-08-12T05:30:37.100Z,14.60
2018-08-12T05:33:05.657Z,14.60
2018-08-12T05:35:34.125Z,14.60
2018-08-12T05:38:02.581Z,14.70
2018-08-12T05:40:31.524Z,14.70
2018-08-12T05:43:00.057Z,14.90
2018-08-12T05:45:28.632Z,15.20
2018-08-12T05:47:57.209Z,15.40
2018-08-12T05:50:25.680Z,15.60
2018-08-12T05:52:54.573Z,17.00
2018-08-12T05:55:23.326Z,18.40
2018-08-12T05:57:51.860Z,17.90
2018-08-12T06:00:20.338Z,17.20
2018-08-12T06:02:48.924Z,17.10
2018-08-12T06:05:17.352Z,17.00
2018-08-12T06:07:45.842Z,17.20
2018-08-12T06:10:14.536Z,17.40
2018-08-12T06:12:43.024Z,18.20
2018-08-12T06:15:15.406Z,19.60
2018-08-12T06:17:44.060Z,19.70
2018-08-12T06:20:13.105Z,20.30
2018-08-12T06:22:41.592Z,20.10
2018-08-12T06:25:11.193Z,20.30
2018-08-12T06:27:39.797Z,20.60
2018-08-12T06:30:11.639Z,21.20
2018-08-12T06:32:40.553Z,21.40
2018-08-12T06:35:10.071Z,22.20
2018-08-12T06:37:38.668Z,22.30
2018-08-12T06:40:09.624Z,22.40
2018-08-12T06:42:38.863Z,21.90
2018-08-12T06:45:09.969Z,22.00
2018-08-12T06:47:38.536Z,21.90
2018-08-12T06:50:08.205Z,21.50
2018-08-12T06:52:37.087Z,21.90
2018-08-12T06:55:06.365Z,22.20
2018-08-12T06:57:34.903Z,22.20
2018-08-12T07:00:03.457Z,22.00
2018-08-12T07:02:31.945Z,22.00
2018-08-12T07:05:00.453Z,22.40
2018-08-12T07:07:28.976Z,22.60
2018-08-12T07:09:57.496Z,22.80
2018-08-12T07:12:26.038Z,22.50
2018-08-12T07:14:54.513Z,22.60
2018-08-12T07:17:23.044Z,23.00
2018-08-12T07:19:51.524Z,23.00
2018-08-12T07:22:20.144Z,23.00
2018-08-12T07:24:49.176Z,23.00
2018-08-12T07:27:17.592Z,23.20
2018-08-12T07:29:46.068Z,23.00
2018-08-12T07:32:14.537Z,23.60
2018-08-12T07:34:43.008Z,23.40
2018-08-12T07:37:11.474Z,23.30
2018-08-12T07:39:39.984Z,24.10
2018-08-12T07:42:08.456Z,23.60
2018-08-12T07:44:36.926Z,23.60
2018-08-12T07:47:05.444Z,23.70
2018-08-12T07:49:33.968Z,24.00
2018-08-12T07:52:02.456Z,23.80
2018-08-12T07:54:30.963Z,23.90
2018-08-12T07:56:59.489Z,24.70
2018-08-12T07:59:27.968Z,25.30
2018-08-12T08:01:56.468Z,25.30
2018-08-12T08:04:24.930Z,24.90
2018-08-12T08:06:53.379Z,24.80
2018-08-12T08:09:21.844Z,25.40
2018-08-12T08:11:50.456Z,25.40
2018-08-12T08:14:18.926Z,25.10
2018-08-12T08:16:47.444Z,24.50
2018-08-12T08:19:15.884Z,24.60
2018-08-12T08:21:45.312Z,24.90
2018-08-12T08:24:13.792Z,25.60
2018-08-12T08:26:42.349Z,25.70
2018-08-12T08:29:10.989Z,25.40
2018-08-12T08:31:39.609Z,25.50
2018-08-12T08:34:07.919Z,25.30
2018-08-12T08:36:36.397Z,25.70
2018-08-12T08:39:08.492Z,25.30
2018-08-12T08:41:36.985Z,25.50
2018-08-12T08:44:05.747Z,25.80
2018-08-12T08:46:34.204Z,25.80
2018-08-12T08:49:03.008Z,25.60
2018-08-12T08:51:31.472Z,25.30
2018-08-12T08:54:00.480Z,25.00
2018-08-12T08:56:29.065Z,25.80
2018-08-12T08:58:57.870Z,26.10
2018-08-12T09:01:26.461Z,26.20
2018-08-12T09:03:54.968Z,25.80
2018-08-12T09:06:23.826Z,26.00
2018-08-12T09:08:52.520Z,26.60
2018-08-12T09:11:20.912Z,26.00
2018-08-12T09:13:49.396Z,26.00
2018-08-12T09:16:18.473Z,26.70
2018-08-12T09:18:47.532Z,27.10
2018-08-12T09:21:16.868Z,26.50
2018-08-12T09:23:45.991Z,26.30
2018-08-12T09:26:14.448Z,26.90
2018-08-12T09:28:42.926Z,26.90
2018-08-12T09:31:11.373Z,25.90
2018-08-12T09:33:39.849Z,26.40
2018-08-12T09:36:08.417Z,26.90
2018-08-12T09:38:36.961Z,27.20
2018-08-12T09:41:05.933Z,27.50
2018-08-12T09:43:34.392Z,27.40
2018-08-12T09:46:02.920Z,27.40
2018-08-12T09:48:31.400Z,27.40
2018-08-12T09:50:59.847Z,27.30
2018-08-12T09:53:28.760Z,27.00
2018-08-12T09:55:57.884Z,27.40
2018-08-12T09:58:26.408Z,27.80
2018-08-12T10:00:54.904Z,27.70
2018-08-12T10:03:23.404Z,27.80
2018-08-12T10:05:51.900Z,28.10
2018-08-12T10:08:20.388Z,28.10
2018-08-12T10:10:48.834Z,28.00
2018-08-12T10:13:17.288Z,28.50
2018-08-12T10:15:45.813Z,28.40
2018-08-12T10:18:14.394Z,28.50
2018-08-12T10:20:42.849Z,28.20
2018-08-12T10:23:11.321Z,27.90
2018-08-12T10:25:39.870Z,28.40
2018-08-12T10:28:08.352Z,28.20
2018-08-12T10:30:36.807Z,28.40
2018-08-12T10:33:05.520Z,28.40
2018-08-12T10:35:33.949Z,28.00
2018-08-12T10:38:02.400Z,27.70
2018-08-12T10:40:31.469Z,27.30
2018-08-12T10:43:00.240Z,28.00
2018-08-12T10:45:28.801Z,28.00
2018-08-12T10:47:57.253Z,28.60
2018-08-12T10:50:25.776Z,28.90
2018-08-12T10:52:54.236Z,28.30
2018-08-12T10:55:23.822Z,28.20
2018-08-12T10:57:52.408Z,28.20
2018-08-12T11:00:24.888Z,28.70
2018-08-12T11:02:54.174Z,28.80
2018-08-12T11:05:22.697Z,28.80
2018-08-12T11:07:53.881Z,29.20
2018-08-12T11:10:22.765Z,28.50
2018-08-12T11:12:51.435Z,28.60
2018-08-12T11:15:21.573Z,29.50
2018-08-12T11:17:50.041Z,29.60
2018-08-12T11:20:18.593Z,29.30
2018-08-12T11:22:47.036Z,29.30
2018-08-12T11:25:15.973Z,29.30
2018-08-12T11:27:44.440Z,29.10
2018-08-12T11:30:16.445Z,29.10
2018-08-12T11:32:45.088Z,28.50
2018-08-12T11:35:15.518Z,28.70
2018-08-12T11:37:44.628Z,28.30
2018-08-12T11:40:14.496Z,28.90
2018-08-12T11:42:43.305Z,28.60
2018-08-12T11:45:14.286Z,28.80
2018-08-12T11:47:43.530Z,28.90
2018-08-12T11:50:12.723Z,28.80
2018-08-12T11:52:42.329Z,28.50
2018-08-12T11:55:13.074Z,28.60
2018-08-12T11:57:42.012Z,29.00
2018-08-12T12:00:13.521Z,29.70
2018-08-12T12:02:42.212Z,28.60
2018-08-12T12:05:12.325Z,28.60
2018-08-12T12:07:41.656Z,28.80
2018-08-12T12:10:13.000Z,28.60
2018-08-12T12:12:42.771Z,28.70
2018-08-12T12:15:12.013Z,29.80
2018-08-12T12:17:40.556Z,29.70
2018-08-12T12:20:10.747Z,30.00
2018-08-12T12:22:40.186Z,27.80
2018-08-12T12:25:10.802Z,27.70
2018-08-12T12:27:39.500Z,27.80
2018-08-12T12:30:10.210Z,28.50
2018-08-12T12:32:38.770Z,29.20
2018-08-12T12:35:07.292Z,29.60
2018-08-12T12:37:35.798Z,29.90
2018-08-12T12:40:05.805Z,29.60
2018-08-12T12:42:34.440Z,29.50
2018-08-12T12:45:03.503Z,29.90
2018-08-12T12:47:31.964Z,30.10
2018-08-12T12:50:00.538Z,29.20
2018-08-12T12:52:29.090Z,29.60
2018-08-12T12:54:57.551Z,30.20
2018-08-12T12:57:26.052Z,30.30
2018-08-12T12:59:54.576Z,30.90
2018-08-12T13:02:23.028Z,30.40
2018-08-12T13:04:51.533Z,30.30
2018-08-12T13:07:20.025Z,30.50
2018-08-12T13:09:48.508Z,31.10
2018-08-12T13:12:17.021Z,31.20
2018-08-12T13:14:45.495Z,30.30
2018-08-12T13:17:13.976Z,30.70
2018-08-12T13:19:42.472Z,31.20
2018-08-12T13:22:11.024Z,31.00
2018-08-12T13:24:39.539Z,31.10
2018-08-12T13:27:08.061Z,31.20
2018-08-12T13:29:36.660Z,31.00
2018-08-12T13:32:05.119Z,31.00
2018-08-12T13:34:33.957Z,31.10
2018-08-12T13:37:02.469Z,31.50
2018-08-12T13:39:30.893Z,31.00
2018-08-12T13:41:59.361Z,31.90
2018-08-12T13:44:27.968Z,32.00
2018-08-12T13:46:56.497Z,31.20
2018-08-12T13:49:24.985Z,30.70
2018-08-12T13:51:53.584Z,31.80
2018-08-12T13:54:22.121Z,30.90
2018-08-12T13:56:51.188Z,31.30
2018-08-12T13:59:19.660Z,31.50
2018-08-12T14:01:48.550Z,31.70
2018-08-12T14:04:17.103Z,31.30
2018-08-12T14:06:45.641Z,31.10
2018-08-12T14:09:14.201Z,30.40
2018-08-12T14:11:42.760Z,30.60
2018-08-12T14:14:11.261Z,30.40
2018-08-12T14:16:39.721Z,30.80
2018-08-12T14:19:08.228Z,31.00
2018-08-12T14:21:36.906Z,31.10
2018-08-12T14:24:05.400Z,31.80
2018-08-12T14:26:33.888Z,32.10
2018-08-12T14:29:02.448Z,31.60
2018-08-12T14:31:30.861Z,31.00
2018-08-12T14:33:59.349Z,30.80
2018-08-12T14:36:27.844Z,29.80
2018-08-12T14:38:56.329Z,30.00
2018-08-12T14:41:24.836Z,30.30
2018-08-12T14:43:53.325Z,30.00
2018-08-12T14:46:21.804Z,29.50
2018-08-12T14:48:50.257Z,29.20
2018-08-12T14:51:18.729Z,29.70
2018-08-12T14:53:47.188Z,29.10
2018-08-12T14:56:15.671Z,28.90
2018-08-12T14:58:44.145Z,30.00
2018-08-12T15:01:12.707Z,29.50
2018-08-12T15:03:41.334Z,29.70
2018-08-12T15:06:09.796Z,30.00
2018-08-12T15:08:38.341Z,29.70
2018-08-12T15:11:06.800Z,29.80
2018-08-12T15:13:36.000Z,29.90
2018-08-12T15:16:04.504Z,29.40
2018-08-12T15:18:32.958Z,29.20
2018-08-12T15:21:02.054Z,29.70
2018-08-12T15:23:30.607Z,29.50
2018-08-12T15:25:59.148Z,29.60
2018-08-12T15:28:27.642Z,29.50
2018-08-12T15:30:56.706Z,29.50
2018-08-12T15:33:25.212Z,29.40
2018-08-12T15:35:53.648Z,29.40
2018-08-12T15:38:22.209Z,29.30
2018-08-12T15:40:50.708Z,29.10
2018-08-12T15:43:19.185Z,29.50
2018-08-12T15:45:47.685Z,29.40
2018-08-12T15:48:16.336Z,29.10
2018-08-12T15:50:44.820Z,29.30
2018-08-12T15:53:13.288Z,29.20
2018-08-12T15:55:42.387Z,28.90
2018-08-12T15:58:10.973Z,29.00
2018-08-12T16:00:39.500Z,29.00
2018-08-12T16:03:08.010Z,29.10
2018-08-12T16:05:36.480Z,29.10
2018-08-12T16:08:05.025Z,29.00
2018-08-12T16:10:33.557Z,29.10
2018-08-12T16:13:02.101Z,28.80
2018-08-12T16:15:30.584Z,28.60
2018-08-12T16:17:59.053Z,28.50
2018-08-12T16:20:27.576Z,28.80
2018-08-12T16:22:56.036Z,28.50
2018-08-12T16:25:24.493Z,28.50
2018-08-12T16:27:53.028Z,28.50
2018-08-12T16:30:21.957Z,28.60
2018-08-12T16:32:50.433Z,28.30
2018-08-12T16:35:18.962Z,28.60
2018-08-12T16:37:48.013Z,28.60
2018-08-12T16:40:19.248Z,28.80
2018-08-12T16:42:48.251Z,28.80
2018-08-12T16:45:17.448Z,28.40
2018-08-12T16:47:46.420Z,28.40
2018-08-12T16:50:14.915Z,28.20
2018-08-12T16:52:43.705Z,28.40
2018-08-12T16:55:17.209Z,28.40
2018-08-12T16:57:46.635Z,28.00
2018-08-12T17:00:19.507Z,27.80
2018-08-12T17:02:48.488Z,28.10
2018-08-12T17:05:18.500Z,27.90
2018-08-12T17:07:47.021Z,27.90
2018-08-12T17:10:16.684Z,27.80
2018-08-12T17:12:45.345Z,27.60
2018-08-12T17:15:16.128Z,27.70
2018-08-12T17:17:44.582Z,27.60
2018-08-12T17:20:15.276Z,27.40
2018-08-12T17:22:44.405Z,27.30
2018-08-12T17:25:12.949Z,27.50
2018-08-12T17:27:41.465Z,27.40
2018-08-12T17:30:11.477Z,27.30
2018-08-12T17:32:40.092Z,27.30
2018-08-12T17:35:09.569Z,27.30
2018-08-12T17:37:38.680Z,27.10
2018-08-12T17:40:08.988Z,27.00
2018-08-12T17:42:37.479Z,26.70
2018-08-12T17:45:07.605Z,26.60
2018-08-12T17:47:36.436Z,26.60
2018-08-12T17:50:06.411Z,26.50
2018-08-12T17:52:34.876Z,26.40
2018-08-12T17:55:03.425Z,26.30
2018-08-12T17:57:31.912Z,26.30
2018-08-12T18:00:00.767Z,26.10
2018-08-12T18:02:29.306Z,26.00
2018-08-12T18:04:57.788Z,25.90
2018-08-12T18:07:26.287Z,25.80
2018-08-12T18:09:54.815Z,25.60
2018-08-12T18:12:23.423Z,25.50
2018-08-12T18:14:51.955Z,25.40
2018-08-12T18:17:20.394Z,25.30
2018-08-12T18:19:50.048Z,25.20
2018-08-12T18:22:25.118Z,25.10
2018-08-12T18:24:53.578Z,25.00
2018-08-12T18:27:22.169Z,24.90
2018-08-12T18:29:50.731Z,24.80
2018-08-12T18:32:19.264Z,24.70
2018-08-12T18:34:47.764Z,24.60
2018-08-12T18:37:16.322Z,24.40
2018-08-12T18:39:44.796Z,24.40
2018-08-12T18:42:13.382Z,24.20
2018-08-12T18:44:41.882Z,24.10
2018-08-12T18:47:10.437Z,24.10
2018-08-12T18:49:38.906Z,24.00
2018-08-12T18:52:07.410Z,23.90
2018-08-12T18:54:35.926Z,23.80
2018-08-12T18:57:04.528Z,23.70
2018-08-12T18:59:33.191Z,23.70
2018-08-12T19:02:01.711Z,23.50
2018-08-12T19:04:30.516Z,23.40
2018-08-12T19:07:00.007Z,23.30
2018-08-12T19:09:29.521Z,23.20
2018-08-12T19:11:59.184Z,23.00
2018-08-12T19:14:27.676Z,23.00
2018-08-12T19:16:56.402Z,23.00
2018-08-12T19:19:24.901Z,22.90
2018-08-12T19:21:53.450Z,22.80
2018-08-12T19:24:21.946Z,22.70
2018-08-12T19:26:50.579Z,22.60
2018-08-12T19:29:20.465Z,22.50
2018-08-12T19:31:50.159Z,22.40
2018-08-12T19:34:19.463Z,22.30
2018-08-12T19:36:48.374Z,22.30
2018-08-12T19:39:16.935Z,22.30
2018-08-12T19:41:45.463Z,22.20
2018-08-12T19:44:13.944Z,22.10
2018-08-12T19:46:42.496Z,22.10
2018-08-12T19:49:12.129Z,22.10
2018-08-12T19:51:40.852Z,22.00
2018-08-12T19:54:09.590Z,21.90
2018-08-12T19:56:38.597Z,21.80
2018-08-12T19:59:07.432Z,21.80
2018-08-12T20:01:36.282Z,21.90
2018-08-12T20:04:06.038Z,21.80
2018-08-12T20:06:34.571Z,21.70
2018-08-12T20:09:03.240Z,21.70
2018-08-12T20:11:31.780Z,21.60
2018-08-12T20:14:00.288Z,21.60
2018-08-12T20:16:28.785Z,21.50
2018-08-12T20:18:57.294Z,21.50
2018-08-12T20:21:25.822Z,21.40
2018-08-12T20:23:54.357Z,21.40
2018-08-12T20:26:22.880Z,21.40
2018-08-12T20:28:51.804Z,21.30
2018-08-12T20:31:20.584Z,21.20
2018-08-12T20:33:49.057Z,21.20
2018-08-12T20:36:17.860Z,21.10
2018-08-12T20:38:46.336Z,21.10
2018-08-12T20:41:14.897Z,21.10
2018-08-12T20:43:43.427Z,21.00
2018-08-12T20:46:11.894Z,20.90
2018-08-12T20:48:40.708Z,20.80
2018-08-12T20:51:10.083Z,20.80
2018-08-12T20:53:38.540Z,20.70
2018-08-12T20:56:07.009Z,20.70
2018-08-12T20:58:35.468Z,20.60
2018-08-12T21:01:03.953Z,20.50
2018-08-12T21:03:32.601Z,20.40
2018-08-12T21:06:01.089Z,20.40
2018-08-12T21:08:29.548Z,20.30
2018-08-12T21:10:58.000Z,20.30
2018-08-12T21:13:28.328Z,20.20
2018-08-12T21:15:56.773Z,20.20
2018-08-12T21:18:25.334Z,20.10
2018-08-12T21:20:53.793Z,20.00
2018-08-12T21:23:22.278Z,20.00
2018-08-12T21:25:50.771Z,20.00
2018-08-12T21:28:19.210Z,19.90
2018-08-12T21:30:47.704Z,19.80
2018-08-12T21:33:16.156Z,19.80
2018-08-12T21:35:45.027Z,19.80
2018-08-12T21:38:13.524Z,19.80
2018-08-12T21:40:42.034Z,19.70
2018-08-12T21:43:10.516Z,19.60
2018-08-12T21:45:38.981Z,19.50
2018-08-12T21:48:07.497Z,19.50
2018-08-12T21:50:35.960Z,19.40
2018-08-12T21:53:04.628Z,19.40
2018-08-12T21:55:33.073Z,19.40
2018-08-12T21:58:01.513Z,19.30
2018-08-12T22:00:30.039Z,19.20
2018-08-12T22:02:58.548Z,19.20
2018-08-12T22:05:27.024Z,19.20
2018-08-12T22:07:55.510Z,19.20
2018-08-12T22:10:24.011Z,19.20
2018-08-12T22:12:52.518Z,19.10
2018-08-12T22:15:20.952Z,19.10
2018-08-12T22:17:49.452Z,19.10
2018-08-12T22:20:17.928Z,19.10
2018-08-12T22:22:46.400Z,19.10
2018-08-12T22:25:14.885Z,19.10
2018-08-12T22:27:43.368Z,19.10
2018-08-12T22:30:14.584Z,19.00
2018-08-12T22:32:43.069Z,19.00
2018-08-12T22:35:12.570Z,19.00
2018-08-12T22:37:41.040Z,19.10
2018-08-12T22:40:09.529Z,19.20
2018-08-12T22:42:38.133Z,19.40
2018-08-12T22:45:08.354Z,19.50
2018-08-12T22:47:36.850Z,19.60
2018-08-12T22:50:06.841Z,19.60
2018-08-12T22:52:35.368Z,19.60
2018-08-12T22:55:04.421Z,19.60
2018-08-12T22:57:32.908Z,19.60
2018-08-12T23:00:01.472Z,19.50
2018-08-12T23:02:30.403Z,19.50
2018-08-12T23:04:58.918Z,19.60
2018-08-12T23:07:27.365Z,19.60
2018-08-12T23:09:55.829Z,19.60
2018-08-12T23:12:24.308Z,19.50
2018-08-12T23:14:53.424Z,19.50
2018-08-12T23:17:21.891Z,19.30
2018-08-12T23:19:50.344Z,19.20
2018-08-12T23:22:18.785Z,19.30
2018-08-12T23:24:47.216Z,19.20
2018-08-12T23:27:15.667Z,19.10
2018-08-12T23:29:44.113Z,19.10
2018-08-12T23:32:12.533Z,19.00
2018-08-12T23:34:40.976Z,19.10
2018-08-12T23:37:09.460Z,19.10
2018-08-12T23:39:37.939Z,19.10
2018-08-12T23:42:06.389Z,19.10
2018-08-12T23:44:34.849Z,19.00
2018-08-12T23:47:03.324Z,18.70
2018-08-12T23:49:31.863Z,18.60
2018-08-12T23:52:00.340Z,18.50
2018-08-12T23:54:28.787Z,18.40
2018-08-12T23:56:57.261Z,18.40
2018-08-12T23:59:25.724Z,18.30
